This is the latest recevied weather packets stored in our database for station/object W7PLC. If no packets are shown the sender has not sent any weather packets the latest 10 day(s).
| Time | Temp. | Humidity | Pressure | Rain* | Wind** | Luminosity | Snow |
|---|---|---|---|---|---|---|---|
| 1777664442 | 22.22° C | 51% | 1014.4 hPa | 0 mm | - | 608 W/m² | - |
| 1777664139 | 22.78° C | 49% | 1014.4 hPa | 0 mm | - | 634 W/m² | - |
| 1777663232 | 22.78° C | 51% | 1014.5 hPa | 0 mm | - | 645 W/m² | - |
| 1777662929 | 20.56° C | 56% | 1014.6 hPa | 0 mm | - | 588 W/m² | - |
| 1777662626 | 21.67° C | 53% | 1014.8 hPa | 0 mm | - | 550 W/m² | - |
| 1777662321 | 21.67° C | 54% | 1014.7 hPa | 0 mm | - | 514 W/m² | - |
| 1777661106 | 21.11° C | 56% | 1015 hPa | 0 mm | - | 619 W/m² | - |
| 1777660194 | 20.56° C | 56% | 1015.2 hPa | 0 mm | - | 516 W/m² | - |
| 1777659285 | 19.44° C | 63% | 1015.1 hPa | 0 mm | - | 480 W/m² | - |
| 1777658982 | 19.44° C | 64% | 1014.9 hPa | 0 mm | - | 189 W/m² | - |
| 1777657769 | 18.89° C | 66% | 1015.1 hPa | 0 mm | - | 169 W/m² | - |
| 1777654434 | 17.78° C | 69% | 1015.2 hPa | 0 mm | - | 387 W/m² | - |
| 1777653524 | 16.67° C | 75% | 1015.4 hPa | 0 mm | - | 248 W/m² | - |
| 1777653221 | 16.67° C | 74% | 1015.5 hPa | 0 mm | - | 217 W/m² | - |
| 1777652918 | 16.11° C | 74% | 1015.2 hPa | 0 mm | - | 261 W/m² | - |
| 1777652615 | 16.67° C | 74% | 1015.5 hPa | 0 mm | - | 248 W/m² | - |
| 1777652311 | 16.11° C | 76% | 1015.4 hPa | 0 mm | - | 298 W/m² | - |
| 1777652009 | 15.56° C | 78% | 1015.4 hPa | 0 mm | - | 249 W/m² | - |
| 1777651705 | 15.56° C | 80% | 1015.6 hPa | 0 mm | - | 220 W/m² | - |
| 1777651402 | 15° C | 80% | 1015.3 hPa | 0 mm | - | 167 W/m² | - |
| 1777651099 | 15° C | 82% | 1015.7 hPa | 0 mm | - | 116 W/m² | - |
| 1777650796 | 14.44° C | 82% | 1015.6 hPa | 0 mm | - | 95 W/m² | - |
| 1777650190 | 14.44° C | 81% | 1015.7 hPa | 0 mm | - | 168 W/m² | - |
| 1777649887 | 15.56° C | 80% | 1015.4 hPa | 0 mm | - | 180 W/m² | - |
| 1777649585 | 15° C | 81% | 1015.4 hPa | 0 mm | - | 185 W/m² | - |
* Rain latest hour (hover to see other rain measurements)
** Current wind speed in m/s (hover to see current wind gust speed)